createdAt,value
2022-10-17T00:00:45.616Z,81.64
2022-10-17T00:04:03.348Z,81.72
2022-10-17T00:07:26.673Z,81.55
2022-10-17T00:10:37.294Z,81.30
2022-10-17T00:14:02.240Z,82.27
2022-10-17T00:17:33.458Z,81.75
2022-10-17T00:20:43.296Z,81.79
2022-10-17T00:24:07.223Z,81.91
2022-10-17T00:27:38.439Z,82.27
2022-10-17T00:31:04.605Z,82.76
2022-10-17T00:34:17.472Z,82.54
2022-10-17T00:37:34.244Z,82.61
2022-10-17T00:40:58.372Z,82.56
2022-10-17T00:44:33.533Z,82.73
2022-10-17T00:47:37.632Z,82.21
2022-10-17T00:50:44.456Z,82.61
2022-10-17T00:53:52.054Z,83.30
2022-10-17T00:57:13.117Z,82.66
2022-10-17T01:00:36.159Z,82.25
2022-10-17T01:03:46.831Z,82.09
2022-10-17T01:06:55.820Z,82.06
2022-10-17T01:10:14.135Z,82.62
2022-10-17T01:14:05.425Z,82.85
2022-10-17T01:17:56.700Z,83.08
2022-10-17T01:21:06.471Z,82.70
2022-10-17T01:24:21.526Z,82.85
2022-10-17T01:27:35.704Z,83.08
2022-10-17T01:31:24.224Z,83.13
2022-10-17T01:34:55.244Z,83.52
2022-10-17T01:38:22.192Z,84.07
2022-10-17T01:41:52.888Z,83.64
2022-10-17T01:45:13.808Z,83.84
2022-10-17T01:48:42.099Z,83.47
2022-10-17T01:52:12.934Z,83.61
2022-10-17T01:55:55.135Z,83.40
2022-10-17T01:59:30.076Z,84.21
2022-10-17T02:02:42.924Z,84.09
2022-10-17T02:05:52.932Z,83.96
2022-10-17T02:09:32.012Z,84.62
2022-10-17T02:13:02.948Z,85.19
2022-10-17T02:16:24.476Z,85.35
2022-10-17T02:19:52.168Z,85.27
2022-10-17T02:23:35.198Z,84.92
2022-10-17T02:26:46.302Z,85.24
2022-10-17T02:30:13.812Z,84.62
2022-10-17T02:33:45.013Z,84.42
2022-10-17T02:37:05.293Z,84.51
2022-10-17T02:40:24.260Z,84.35
2022-10-17T02:43:31.583Z,84.36
2022-10-17T02:46:41.199Z,84.11
2022-10-17T02:50:00.202Z,84.89
2022-10-17T02:53:10.010Z,85.41
2022-10-17T02:56:19.640Z,85.62
2022-10-17T02:59:32.095Z,85.03
2022-10-17T03:02:51.713Z,85.11
2022-10-17T03:06:05.822Z,84.57
2022-10-17T03:09:23.062Z,84.69
2022-10-17T03:12:26.957Z,84.55
2022-10-17T03:15:37.298Z,85.15
2022-10-17T03:18:50.098Z,85.32
2022-10-17T03:21:57.518Z,85.71
2022-10-17T03:25:00.803Z,85.81
2022-10-17T03:28:10.013Z,86.47
2022-10-17T03:31:18.564Z,87.37
2022-10-17T03:34:42.837Z,86.65
2022-10-17T03:37:57.605Z,87.45
2022-10-17T03:41:22.708Z,87.00
2022-10-17T03:44:50.716Z,86.59
2022-10-17T03:48:11.750Z,86.51
2022-10-17T03:51:30.908Z,86.33
2022-10-17T03:54:51.914Z,86.18
2022-10-17T03:58:20.074Z,86.51
2022-10-17T04:01:37.726Z,86.37
2022-10-17T04:05:00.972Z,86.26
2022-10-17T04:08:21.665Z,86.87
2022-10-17T04:11:52.567Z,85.89
2022-10-17T04:15:09.035Z,86.62
2022-10-17T04:18:31.766Z,85.91
2022-10-17T04:21:53.738Z,86.59
2022-10-17T04:25:15.882Z,87.19
2022-10-17T04:32:00.785Z,86.75
2022-10-17T04:35:09.836Z,87.18
2022-10-17T04:38:33.782Z,86.36
2022-10-17T04:42:00.764Z,85.89
2022-10-17T04:45:20.824Z,85.92
2022-10-17T04:48:51.103Z,85.91
2022-10-17T04:52:11.749Z,85.68
2022-10-17T04:55:35.899Z,85.10
2022-10-17T04:58:57.731Z,85.72
2022-10-17T05:02:18.909Z,84.96
2022-10-17T05:05:29.883Z,85.65
2022-10-17T05:08:53.724Z,85.96
2022-10-17T05:12:04.346Z,86.03
2022-10-17T05:15:19.591Z,85.71
2022-10-17T05:18:24.294Z,85.73
2022-10-17T05:21:40.837Z,86.16
2022-10-17T05:24:51.373Z,85.93
2022-10-17T05:27:57.296Z,85.84
2022-10-17T05:31:21.164Z,85.55
2022-10-17T05:34:25.434Z,85.67
2022-10-17T05:37:49.172Z,86.14
2022-10-17T05:41:02.044Z,85.72
2022-10-17T05:44:27.469Z,85.65
2022-10-17T05:53:46.349Z,84.74
2022-10-17T05:57:04.083Z,84.68
2022-10-17T06:04:00.671Z,83.87
2022-10-17T06:07:58.291Z,83.68
2022-10-17T06:11:29.127Z,82.82
2022-10-17T06:14:40.945Z,83.23
2022-10-17T06:17:53.123Z,82.29
2022-10-17T06:21:05.267Z,83.19
2022-10-17T06:24:13.276Z,82.79
2022-10-17T06:27:20.638Z,83.05
2022-10-17T06:30:25.498Z,83.48
2022-10-17T06:33:44.854Z,82.72
2022-10-17T06:37:35.323Z,82.14
2022-10-17T06:45:40.641Z,81.85
2022-10-17T06:49:35.803Z,80.87
2022-10-17T06:53:20.312Z,81.10
2022-10-17T06:57:10.364Z,81.04
2022-10-17T07:00:59.916Z,80.25
2022-10-17T07:04:21.111Z,80.70
2022-10-17T07:07:45.625Z,80.21
2022-10-17T07:11:39.554Z,79.63
2022-10-17T07:14:51.877Z,79.86
2022-10-17T07:18:37.966Z,79.94
2022-10-17T07:21:43.888Z,79.52
2022-10-17T07:25:06.168Z,79.65
2022-10-17T07:28:32.284Z,78.93
2022-10-17T07:31:50.050Z,77.59
2022-10-17T07:34:55.525Z,77.88
2022-10-17T07:38:18.231Z,77.77
2022-10-17T07:42:08.516Z,76.58
2022-10-17T07:58:12.676Z,71.88
2022-10-17T08:01:38.563Z,72.15
2022-10-17T08:04:46.859Z,71.16
2022-10-17T08:08:40.746Z,70.88
2022-10-17T08:12:14.950Z,70.83
2022-10-17T08:20:16.132Z,69.58
2022-10-17T08:24:23.196Z,69.14
2022-10-17T08:27:59.007Z,68.20
2022-10-17T08:32:01.134Z,68.86
2022-10-17T08:41:15.599Z,67.74
2022-10-17T08:45:04.040Z,66.40
2022-10-17T08:53:04.616Z,63.74
2022-10-17T09:02:11.423Z,62.75
2022-10-17T09:06:05.985Z,62.28
2022-10-17T09:09:28.684Z,61.44
2022-10-17T09:13:43.311Z,61.85
2022-10-17T09:17:44.809Z,59.84
2022-10-17T09:22:12.555Z,60.07
2022-10-17T09:25:30.676Z,59.08
2022-10-17T09:29:01.842Z,59.46
2022-10-17T09:37:54.556Z,56.97
2022-10-17T09:42:18.105Z,56.54
2022-10-17T09:50:01.055Z,56.16
2022-10-17T10:00:02.544Z,55.52
2022-10-17T10:03:56.422Z,54.08
2022-10-17T10:07:44.719Z,53.88
2022-10-17T10:16:56.832Z,52.63
2022-10-17T10:20:38.070Z,51.87
2022-10-17T10:24:14.561Z,52.86
2022-10-17T10:27:22.364Z,51.04
2022-10-17T10:30:34.870Z,47.97
2022-10-17T10:33:50.898Z,46.06
2022-10-17T10:37:41.567Z,44.61
2022-10-17T10:41:13.069Z,44.31
2022-10-17T10:44:39.780Z,43.82
2022-10-17T10:48:14.792Z,44.54
2022-10-17T10:57:25.141Z,43.05
2022-10-17T11:07:26.377Z,43.56
2022-10-17T11:10:45.544Z,42.68
2022-10-17T11:29:12.100Z,40.58
2022-10-17T11:33:13.481Z,40.73
2022-10-17T11:42:29.167Z,40.34
2022-10-17T12:14:17.302Z,38.90
2022-10-17T12:17:44.073Z,39.08
2022-10-17T12:21:01.029Z,38.66
2022-10-17T12:24:52.472Z,39.06
2022-10-17T12:28:59.857Z,37.75
2022-10-17T12:32:13.643Z,36.71
2022-10-17T12:35:59.929Z,35.97
2022-10-17T12:39:20.631Z,33.65
2022-10-17T12:42:46.864Z,35.72
2022-10-17T12:46:01.873Z,36.83
2022-10-17T12:49:56.682Z,37.96
2022-10-17T12:53:25.577Z,37.84
2022-10-17T12:56:53.503Z,38.72
2022-10-17T13:00:26.372Z,38.95
2022-10-17T13:04:46.246Z,39.20
2022-10-17T13:08:26.153Z,39.51
2022-10-17T13:17:05.563Z,38.98
2022-10-17T13:20:33.658Z,38.80
2022-10-17T13:23:38.365Z,38.80
2022-10-17T13:26:48.268Z,39.22
2022-10-17T13:29:57.270Z,38.53
2022-10-17T13:38:42.659Z,37.82
2022-10-17T13:41:59.835Z,36.88
2022-10-17T13:46:19.259Z,36.40
2022-10-17T13:49:41.117Z,36.45
2022-10-17T13:52:44.335Z,36.45
2022-10-17T13:56:27.856Z,36.38
2022-10-17T13:59:50.430Z,36.38
2022-10-17T14:03:03.971Z,37.33
2022-10-17T14:06:23.247Z,36.81
2022-10-17T14:09:43.816Z,36.93
2022-10-17T14:13:00.244Z,37.22
2022-10-17T14:16:11.243Z,37.03
2022-10-17T14:19:33.420Z,36.89
2022-10-17T14:22:40.963Z,37.57
2022-10-17T14:26:15.938Z,38.14
2022-10-17T14:29:27.742Z,38.00
2022-10-17T14:32:37.755Z,38.12
2022-10-17T14:35:55.182Z,38.38
2022-10-17T14:39:15.833Z,39.61
2022-10-17T14:42:24.880Z,38.50
2022-10-17T14:45:50.121Z,38.12
2022-10-17T14:49:27.162Z,38.39
2022-10-17T14:52:39.077Z,38.45
2022-10-17T14:56:09.110Z,40.01
2022-10-17T14:59:51.439Z,39.53
2022-10-17T15:02:46.980Z,39.41
2022-10-17T15:06:04.983Z,39.84
2022-10-17T15:09:28.922Z,40.05
2022-10-17T15:12:57.495Z,40.52
2022-10-17T15:16:47.879Z,40.87
2022-10-17T15:19:51.962Z,40.90
2022-10-17T15:22:59.586Z,41.34
2022-10-17T15:26:22.066Z,41.50
2022-10-17T15:29:30.550Z,42.23
2022-10-17T15:32:51.963Z,43.45
2022-10-17T15:36:15.067Z,43.29
2022-10-17T15:39:37.041Z,43.43
2022-10-17T15:43:00.058Z,46.10
2022-10-17T15:46:22.042Z,46.90
2022-10-17T15:49:43.035Z,48.13
2022-10-17T15:53:04.012Z,49.42
2022-10-17T15:56:31.563Z,49.62
2022-10-17T15:59:48.061Z,50.10
2022-10-17T16:03:09.083Z,50.38
2022-10-17T16:06:26.023Z,51.03
2022-10-17T16:09:41.192Z,51.86
2022-10-17T16:13:03.998Z,52.84
2022-10-17T16:16:28.954Z,53.04
2022-10-17T16:19:58.340Z,53.42
2022-10-17T16:23:15.141Z,54.36
2022-10-17T16:26:18.859Z,54.42
2022-10-17T16:29:25.872Z,55.14
2022-10-17T16:32:33.580Z,55.83
2022-10-17T16:35:42.587Z,56.26
2022-10-17T16:38:46.294Z,56.01
2022-10-17T16:41:54.848Z,56.16
2022-10-17T16:45:04.572Z,56.64
2022-10-17T16:48:18.156Z,57.46
2022-10-17T16:51:39.824Z,58.24
2022-10-17T16:54:43.016Z,58.43
2022-10-17T16:57:49.292Z,58.83
2022-10-17T17:01:05.658Z,59.60
2022-10-17T17:04:28.803Z,60.54
2022-10-17T17:07:53.637Z,60.86
2022-10-17T17:11:17.615Z,60.79
2022-10-17T17:14:39.607Z,61.14
2022-10-17T17:17:55.967Z,61.73
2022-10-17T17:21:16.871Z,61.98
2022-10-17T17:24:31.613Z,62.95
2022-10-17T17:27:34.397Z,62.99
2022-10-17T17:30:45.142Z,63.85
2022-10-17T17:34:01.716Z,64.56
2022-10-17T17:37:08.131Z,65.24
2022-10-17T17:40:15.223Z,65.26
2022-10-17T17:43:22.290Z,66.01
2022-10-17T17:46:42.607Z,66.91
2022-10-17T17:50:03.547Z,66.66
2022-10-17T17:53:15.553Z,66.55
2022-10-17T17:56:40.695Z,69.48
2022-10-17T18:00:10.684Z,69.88
2022-10-17T18:03:26.875Z,70.60
2022-10-17T18:06:49.657Z,70.46
2022-10-17T18:13:39.617Z,69.22
2022-10-17T18:17:03.645Z,69.23
2022-10-17T18:20:27.626Z,70.37
2022-10-17T18:23:48.842Z,71.00
2022-10-17T18:26:54.047Z,70.44
2022-10-17T18:29:56.878Z,70.14
2022-10-17T18:33:11.235Z,68.96
2022-10-17T18:36:31.114Z,69.58
2022-10-17T18:39:40.612Z,69.52
2022-10-17T18:42:57.782Z,69.10
2022-10-17T18:46:32.631Z,69.28
2022-10-17T18:49:55.550Z,68.43
2022-10-17T18:53:21.220Z,68.68
2022-10-17T18:56:38.605Z,69.23
2022-10-17T19:00:03.172Z,69.27
2022-10-17T19:03:27.651Z,69.85
2022-10-17T19:06:50.228Z,69.82
2022-10-17T19:10:10.282Z,70.13
2022-10-17T19:13:34.551Z,69.67
2022-10-17T19:16:59.192Z,69.85
2022-10-17T19:20:21.154Z,69.79
2022-10-17T19:23:42.246Z,70.17
2022-10-17T19:26:47.032Z,69.41
2022-10-17T19:29:55.941Z,68.96
2022-10-17T19:33:05.828Z,68.83
2022-10-17T19:36:32.259Z,69.19
2022-10-17T19:39:45.212Z,69.92
2022-10-17T19:42:52.169Z,70.27
2022-10-17T19:46:04.272Z,70.64
2022-10-17T19:49:07.830Z,70.41
2022-10-17T19:52:10.560Z,71.42
2022-10-17T19:55:33.489Z,71.08
2022-10-17T19:59:04.549Z,71.59
2022-10-17T20:02:24.530Z,72.10
2022-10-17T20:05:45.419Z,72.71
2022-10-17T20:09:13.926Z,73.45
2022-10-17T20:12:35.379Z,72.89
2022-10-17T20:15:57.534Z,73.73
2022-10-17T20:19:17.334Z,73.58
2022-10-17T20:22:40.411Z,74.65
2022-10-17T20:26:08.734Z,74.68
2022-10-17T20:29:28.128Z,74.82
2022-10-17T20:32:49.690Z,74.22
2022-10-17T20:35:57.681Z,74.37
2022-10-17T20:39:07.303Z,74.56
2022-10-17T20:42:14.508Z,74.83
2022-10-17T20:45:43.833Z,76.25
2022-10-17T20:49:31.310Z,74.91
2022-10-17T20:53:24.450Z,74.73
2022-10-17T20:56:27.475Z,75.59
2022-10-17T20:59:46.346Z,75.77
2022-10-17T21:03:06.387Z,76.75
2022-10-17T21:06:27.276Z,76.23
2022-10-17T21:09:47.341Z,76.99
2022-10-17T21:13:07.317Z,76.98
2022-10-17T21:16:29.386Z,77.10
2022-10-17T21:19:49.175Z,77.18
2022-10-17T21:22:52.462Z,76.72
2022-10-17T21:26:00.096Z,77.01
2022-10-17T21:29:11.822Z,77.66
2022-10-17T21:32:39.404Z,78.14
2022-10-17T21:36:05.880Z,78.77
2022-10-17T21:39:15.853Z,78.23
2022-10-17T21:42:39.198Z,79.04
2022-10-17T21:46:12.111Z,78.23
2022-10-17T21:49:30.523Z,78.58
2022-10-17T21:52:46.103Z,78.91
2022-10-17T21:56:08.136Z,77.98
2022-10-17T21:59:17.712Z,77.96
2022-10-17T22:02:21.075Z,78.41
2022-10-17T22:05:37.387Z,78.96
2022-10-17T22:08:43.519Z,78.61
2022-10-17T22:12:00.091Z,78.46
2022-10-17T22:15:03.992Z,78.11
2022-10-17T22:18:18.075Z,77.85
2022-10-17T22:21:34.948Z,77.91
2022-10-17T22:24:58.029Z,78.16
2022-10-17T22:28:21.044Z,78.78
2022-10-17T22:31:43.936Z,78.18
2022-10-17T22:35:07.209Z,78.43
2022-10-17T22:38:26.986Z,78.61
2022-10-17T22:41:43.224Z,78.89
2022-10-17T22:45:04.135Z,78.47
2022-10-17T22:48:37.981Z,78.31
2022-10-17T22:51:58.961Z,78.54
2022-10-17T22:55:20.961Z,78.37
2022-10-17T22:58:44.030Z,78.63
2022-10-17T23:02:04.015Z,78.97
2022-10-17T23:05:26.976Z,78.66
2022-10-17T23:08:49.020Z,78.56
2022-10-17T23:12:11.964Z,78.50
2022-10-17T23:15:36.971Z,78.64
2022-10-17T23:18:58.035Z,78.61
2022-10-17T23:22:12.125Z,78.95
2022-10-17T23:25:34.930Z,79.12
2022-10-17T23:29:00.326Z,79.57
2022-10-17T23:32:21.046Z,79.19
2022-10-17T23:35:44.111Z,79.21
2022-10-17T23:39:01.295Z,79.80
2022-10-17T23:42:04.282Z,79.70
2022-10-17T23:45:09.678Z,80.41
2022-10-17T23:48:30.681Z,80.49
2022-10-17T23:51:51.721Z,80.48
2022-10-17T23:55:14.910Z,80.17
2022-10-17T23:58:40.688Z,80.96
